createdAt,value
2018-10-02T00:02:16.158Z,6.60
2018-10-02T00:04:43.465Z,5.47
2018-10-02T00:07:10.801Z,5.40
2018-10-02T00:09:38.066Z,4.90
2018-10-02T00:12:11.210Z,5.37
2018-10-02T00:14:38.497Z,5.80
2018-10-02T00:17:05.777Z,4.77
2018-10-02T00:19:33.202Z,5.40
2018-10-02T00:22:00.487Z,5.27
2018-10-02T00:24:27.761Z,5.30
2018-10-02T00:26:55.017Z,4.87
2018-10-02T00:29:22.441Z,4.50
2018-10-02T00:31:49.967Z,5.53
2018-10-02T00:34:17.550Z,5.20
2018-10-02T00:36:45.157Z,5.83
2018-10-02T00:39:12.766Z,6.03
2018-10-02T00:41:40.222Z,5.57
2018-10-02T00:44:07.765Z,5.10
2018-10-02T00:46:35.237Z,6.07
2018-10-02T00:49:02.762Z,5.97
2018-10-02T00:51:30.414Z,5.83
2018-10-02T00:53:58.118Z,5.30
2018-10-02T00:56:25.461Z,5.40
2018-10-02T00:58:52.762Z,6.53
2018-10-02T01:01:20.293Z,5.40
2018-10-02T01:03:47.793Z,5.77
2018-10-02T01:06:15.269Z,4.97
2018-10-02T01:08:42.801Z,5.03
2018-10-02T01:11:10.285Z,5.90
2018-10-02T01:13:37.770Z,5.13
2018-10-02T01:16:05.306Z,5.50
2018-10-02T01:18:32.891Z,4.80
2018-10-02T01:21:00.726Z,4.80
2018-10-02T01:23:28.053Z,4.70
2018-10-02T01:25:55.545Z,4.57
2018-10-02T01:28:23.020Z,4.60
2018-10-02T01:30:50.585Z,5.10
2018-10-02T01:33:18.076Z,4.40
2018-10-02T01:35:45.596Z,4.80
2018-10-02T01:38:13.089Z,3.70
2018-10-02T01:40:40.585Z,5.07
2018-10-02T01:43:08.058Z,4.87
2018-10-02T01:45:35.581Z,3.93
2018-10-02T01:48:03.114Z,4.10
2018-10-02T01:50:30.552Z,4.40
2018-10-02T01:52:57.994Z,3.63
2018-10-02T01:55:25.434Z,4.50
2018-10-02T01:57:52.984Z,4.30
2018-10-02T02:00:20.581Z,3.87
2018-10-02T02:02:48.353Z,4.00
2018-10-02T02:05:15.941Z,4.07
2018-10-02T02:07:43.413Z,4.23
2018-10-02T02:10:10.942Z,4.23
2018-10-02T02:12:38.429Z,3.90
2018-10-02T02:15:05.978Z,4.23
2018-10-02T02:17:33.578Z,3.67
2018-10-02T02:20:01.874Z,5.00
2018-10-02T02:22:29.246Z,3.60
2018-10-02T02:24:56.779Z,4.20
2018-10-02T02:27:24.262Z,3.90
2018-10-02T02:29:51.771Z,3.93
2018-10-02T02:32:19.359Z,3.43
2018-10-02T02:34:46.729Z,4.47
2018-10-02T02:37:14.792Z,3.30
2018-10-02T02:39:42.684Z,4.13
2018-10-02T02:42:10.182Z,4.07
2018-10-02T02:44:37.750Z,3.20
2018-10-02T02:47:10.965Z,3.37
2018-10-02T02:49:44.057Z,4.13
2018-10-02T02:52:12.387Z,3.50
2018-10-02T02:54:40.171Z,4.37
2018-10-02T02:57:07.750Z,3.57
2018-10-02T02:59:37.322Z,3.30
2018-10-02T03:02:04.667Z,3.10
2018-10-02T03:04:31.975Z,3.73
2018-10-02T03:06:59.271Z,3.23
2018-10-02T03:09:27.421Z,3.13
2018-10-02T03:11:59.385Z,3.30
2018-10-02T03:14:26.697Z,4.60
2018-10-02T03:16:53.990Z,3.70
2018-10-02T03:19:21.270Z,4.07
2018-10-02T03:21:48.602Z,3.60
2018-10-02T03:24:16.007Z,4.13
2018-10-02T03:26:43.327Z,3.97
2018-10-02T03:29:10.601Z,3.30
2018-10-02T03:31:37.885Z,4.10
2018-10-02T03:34:05.454Z,2.90
2018-10-02T03:36:32.882Z,3.93
2018-10-02T03:39:00.222Z,3.80
2018-10-02T03:41:27.577Z,3.70
2018-10-02T03:43:54.858Z,4.00
2018-10-02T03:46:22.166Z,4.43
2018-10-02T03:48:49.448Z,3.53
2018-10-02T03:51:16.893Z,3.43
2018-10-02T03:53:44.206Z,3.50
2018-10-02T03:56:11.498Z,3.00
2018-10-02T03:58:38.777Z,3.67
2018-10-02T04:01:06.038Z,3.50
2018-10-02T04:03:33.582Z,4.00
2018-10-02T04:06:00.811Z,4.20
2018-10-02T04:08:28.094Z,3.87
2018-10-02T04:10:55.574Z,3.17
2018-10-02T04:13:23.087Z,4.00
2018-10-02T04:15:50.545Z,4.30
2018-10-02T04:18:18.221Z,5.33
2018-10-02T04:20:45.908Z,3.60
2018-10-02T04:23:13.301Z,4.63
2018-10-02T04:25:40.918Z,3.40
2018-10-02T04:28:08.474Z,3.33
2018-10-02T04:30:35.967Z,3.77
2018-10-02T04:33:03.754Z,3.43
2018-10-02T04:35:31.031Z,3.60
2018-10-02T04:37:58.594Z,3.77
2018-10-02T04:40:26.119Z,3.80
2018-10-02T04:42:53.830Z,3.80
2018-10-02T04:45:21.354Z,3.47
2018-10-02T04:47:51.971Z,3.03
2018-10-02T04:50:19.842Z,3.80
2018-10-02T04:52:47.431Z,4.03
2018-10-02T04:55:15.206Z,3.67
2018-10-02T04:57:43.292Z,3.60
2018-10-02T05:00:16.388Z,3.73
2018-10-02T05:02:43.716Z,3.67
2018-10-02T05:05:11.179Z,3.40
2018-10-02T05:07:38.561Z,3.30
2018-10-02T05:10:05.881Z,4.33
2018-10-02T05:12:33.124Z,3.97
2018-10-02T05:15:00.532Z,4.30
2018-10-02T05:17:27.967Z,4.00
2018-10-02T05:19:55.703Z,3.70
2018-10-02T05:22:23.131Z,3.47
2018-10-02T05:24:50.545Z,3.83
2018-10-02T05:27:17.971Z,3.83
2018-10-02T05:29:45.496Z,4.07
2018-10-02T05:32:12.988Z,3.43
2018-10-02T05:34:41.093Z,3.00
2018-10-02T05:37:08.526Z,3.20
2018-10-02T05:39:36.009Z,3.17
2018-10-02T05:42:03.519Z,2.83
2018-10-02T05:44:30.961Z,6.70
2018-10-02T05:46:58.392Z,2.73
2018-10-02T05:49:26.109Z,3.10
2018-10-02T05:51:53.524Z,3.50
2018-10-02T05:54:21.009Z,3.07
2018-10-02T05:56:53.353Z,3.30
2018-10-02T05:59:20.675Z,3.23
2018-10-02T06:01:48.305Z,3.70
2018-10-02T06:04:15.541Z,3.70
2018-10-02T06:06:42.812Z,4.37
2018-10-02T06:09:11.460Z,3.40
2018-10-02T06:11:40.040Z,3.87
2018-10-02T06:14:07.994Z,5.00
2018-10-02T06:16:35.314Z,4.00
2018-10-02T06:19:02.589Z,3.97
2018-10-02T06:21:29.950Z,4.50
2018-10-02T06:23:57.261Z,3.90
2018-10-02T06:26:24.666Z,4.43
2018-10-02T06:28:52.056Z,4.67
2018-10-02T06:31:19.324Z,6.93
2018-10-02T06:33:46.630Z,4.73
2018-10-02T06:36:13.930Z,4.10
2018-10-02T06:38:41.402Z,4.00
2018-10-02T06:41:08.622Z,4.43
2018-10-02T06:43:36.004Z,4.37
2018-10-02T06:46:03.227Z,4.50
2018-10-02T06:48:30.538Z,4.20
2018-10-02T06:50:57.909Z,4.00
2018-10-02T06:53:25.103Z,3.50
2018-10-02T06:55:52.443Z,4.50
2018-10-02T06:58:19.768Z,4.10
2018-10-02T07:00:47.214Z,4.23
2018-10-02T07:03:14.710Z,3.90
2018-10-02T07:05:42.322Z,3.70
2018-10-02T07:08:09.630Z,3.53
2018-10-02T07:10:37.075Z,2.60
2018-10-02T07:13:04.567Z,3.30
2018-10-02T07:15:32.044Z,3.50
2018-10-02T07:17:59.492Z,3.07
2018-10-02T07:20:26.990Z,3.33
2018-10-02T07:22:55.849Z,3.90
2018-10-02T07:25:23.182Z,3.53
2018-10-02T07:27:50.629Z,3.20
2018-10-02T07:30:17.748Z,3.77
2018-10-02T07:32:45.264Z,3.40
2018-10-02T07:35:12.453Z,3.73
2018-10-02T07:37:40.050Z,3.53
2018-10-02T07:40:07.527Z,3.80
2018-10-02T07:42:38.974Z,3.10
2018-10-02T07:45:06.365Z,3.20
2018-10-02T07:47:33.600Z,4.50
2018-10-02T07:50:00.866Z,3.20
2018-10-02T07:52:28.174Z,4.27
2018-10-02T07:54:55.486Z,3.13
2018-10-02T07:57:24.382Z,3.70
2018-10-02T07:59:51.698Z,6.20
2018-10-02T08:02:18.978Z,3.73
2018-10-02T08:04:46.338Z,4.03
2018-10-02T08:07:13.550Z,4.83
2018-10-02T08:09:40.818Z,4.83
2018-10-02T08:12:08.189Z,4.40
2018-10-02T08:14:35.728Z,5.00
2018-10-02T08:17:03.263Z,4.60
2018-10-02T08:19:30.731Z,4.53
2018-10-02T08:21:58.218Z,4.70
2018-10-02T08:24:25.668Z,5.00
2018-10-02T08:26:53.197Z,4.77
2018-10-02T08:29:20.700Z,4.53
2018-10-02T08:31:48.185Z,4.90
2018-10-02T08:34:15.670Z,4.83
2018-10-02T08:36:43.236Z,5.20
2018-10-02T08:39:11.711Z,4.50
2018-10-02T08:41:39.609Z,5.03
2018-10-02T08:44:07.046Z,5.17
2018-10-02T08:46:34.553Z,5.40
2018-10-02T08:49:02.022Z,4.70
2018-10-02T08:51:29.747Z,4.90
2018-10-02T08:53:57.288Z,5.03
2018-10-02T08:56:24.778Z,4.77
2018-10-02T08:58:52.237Z,5.57
2018-10-02T09:01:19.784Z,5.80
2018-10-02T09:03:47.301Z,4.97
2018-10-02T09:06:14.755Z,4.10
2018-10-02T09:08:42.246Z,4.80
2018-10-02T09:11:09.734Z,5.20
2018-10-02T09:13:37.207Z,5.30
2018-10-02T09:16:04.892Z,5.50
2018-10-02T09:18:32.393Z,6.83
2018-10-02T09:20:59.751Z,5.60
2018-10-02T09:23:27.223Z,6.50
2018-10-02T09:25:54.798Z,5.23
2018-10-02T09:28:22.297Z,4.77
2018-10-02T09:30:59.314Z,4.90
2018-10-02T09:33:32.482Z,4.70
2018-10-02T09:36:05.754Z,4.33
2018-10-02T09:38:42.600Z,4.50
2018-10-02T09:41:15.670Z,4.70
2018-10-02T09:43:45.855Z,4.33
2018-10-02T09:46:13.274Z,4.37
2018-10-02T09:48:43.083Z,4.90
2018-10-02T09:51:10.505Z,4.13
2018-10-02T09:53:37.987Z,5.93
2018-10-02T09:56:05.694Z,5.43
2018-10-02T09:58:33.230Z,4.70
2018-10-02T10:01:05.379Z,4.93
2018-10-02T10:03:32.836Z,4.67
2018-10-02T10:06:00.406Z,5.10
2018-10-02T10:08:27.929Z,5.40
2018-10-02T10:10:55.425Z,6.00
2018-10-02T10:13:22.953Z,5.50
2018-10-02T10:15:50.402Z,5.07
2018-10-02T10:18:18.273Z,6.17
2018-10-02T10:20:45.885Z,5.67
2018-10-02T10:23:13.378Z,5.80
2018-10-02T10:25:40.849Z,5.90
2018-10-02T10:28:08.350Z,6.07
2018-10-02T10:30:35.826Z,5.60
2018-10-02T10:33:03.414Z,6.20
2018-10-02T10:35:30.886Z,6.00
2018-10-02T10:37:58.365Z,6.27
2018-10-02T10:40:25.989Z,6.10
2018-10-02T10:42:53.433Z,5.47
2018-10-02T10:45:20.910Z,4.00
2018-10-02T10:47:48.415Z,4.40
2018-10-02T10:50:15.864Z,4.90
2018-10-02T10:52:43.423Z,3.87
2018-10-02T10:55:26.249Z,3.60
2018-10-02T10:57:53.745Z,3.67
2018-10-02T11:00:21.630Z,3.83
2018-10-02T11:02:49.103Z,2.43
2018-10-02T11:05:16.841Z,2.83
2018-10-02T11:07:44.358Z,2.80
2018-10-02T11:10:12.279Z,2.17
2018-10-02T11:12:39.774Z,2.00
2018-10-02T11:15:07.690Z,2.23
2018-10-02T11:17:35.113Z,2.07
2018-10-02T11:20:03.543Z,2.00
2018-10-02T11:22:31.045Z,1.97
2018-10-02T11:24:58.534Z,2.60
2018-10-02T11:27:25.993Z,3.03
2018-10-02T11:29:53.561Z,2.50
2018-10-02T11:32:21.073Z,2.70
2018-10-02T11:34:48.731Z,3.90
2018-10-02T11:37:16.235Z,2.97
2018-10-02T11:39:43.786Z,3.23
2018-10-02T11:42:11.287Z,3.37
2018-10-02T11:44:38.918Z,3.50
2018-10-02T11:47:06.343Z,3.80
2018-10-02T11:49:33.974Z,3.30
2018-10-02T11:52:01.441Z,4.13
2018-10-02T11:54:28.984Z,4.10
2018-10-02T11:56:56.502Z,4.23
2018-10-02T11:59:24.000Z,4.40
2018-10-02T12:01:51.550Z,4.23
2018-10-02T12:04:19.088Z,4.70
2018-10-02T12:06:46.681Z,4.30
2018-10-02T12:09:14.178Z,4.07
2018-10-02T12:11:41.712Z,4.60
2018-10-02T12:14:09.276Z,4.33
2018-10-02T12:16:36.718Z,4.90
2018-10-02T12:19:04.304Z,4.50
2018-10-02T12:21:31.791Z,4.60
2018-10-02T12:23:59.363Z,4.13
2018-10-02T12:26:26.869Z,4.50
2018-10-02T12:28:54.411Z,4.20
2018-10-02T12:31:21.976Z,3.93
2018-10-02T12:33:49.586Z,4.57
2018-10-02T12:36:17.126Z,3.80
2018-10-02T12:38:45.010Z,4.07
2018-10-02T12:41:12.395Z,4.50
2018-10-02T12:43:42.719Z,4.53
2018-10-02T12:46:10.289Z,3.80
2018-10-02T12:48:37.769Z,4.20
2018-10-02T12:51:05.346Z,4.30
2018-10-02T12:53:33.013Z,3.73
2018-10-02T12:56:00.641Z,3.43
2018-10-02T12:58:29.321Z,3.60
2018-10-02T13:00:56.793Z,3.47
2018-10-02T13:03:24.358Z,3.70
2018-10-02T13:05:51.870Z,3.80
2018-10-02T13:08:19.373Z,3.70
2018-10-02T13:10:46.858Z,4.47
2018-10-02T13:13:16.487Z,4.77
2018-10-02T13:15:43.830Z,5.10
2018-10-02T13:18:11.263Z,4.80
2018-10-02T13:20:38.828Z,5.50
2018-10-02T13:23:06.346Z,5.47
2018-10-02T13:25:33.859Z,5.77
2018-10-02T13:30:35.126Z,5.77
2018-10-02T13:33:02.590Z,6.10
2018-10-02T13:35:30.053Z,7.00
2018-10-02T13:37:57.539Z,7.07
2018-10-02T13:40:25.001Z,8.17
2018-10-02T13:42:56.072Z,7.90
2018-10-02T13:45:23.642Z,9.60
2018-10-02T13:47:51.271Z,8.77
2018-10-02T13:50:18.758Z,9.70
2018-10-02T13:52:46.303Z,10.37
2018-10-02T13:55:15.688Z,11.70
2018-10-02T13:57:45.314Z,13.37
2018-10-02T14:00:12.790Z,14.20
2018-10-02T14:02:40.279Z,14.30
2018-10-02T14:05:07.760Z,14.50
2018-10-02T14:07:35.270Z,13.80
2018-10-02T14:10:07.033Z,15.63
2018-10-02T14:12:34.582Z,15.80
2018-10-02T14:15:02.138Z,15.33
2018-10-02T14:17:29.631Z,16.40
2018-10-02T14:19:57.074Z,15.20
2018-10-02T14:22:29.166Z,15.63
2018-10-02T14:24:56.426Z,16.53
2018-10-02T14:27:23.721Z,16.63
2018-10-02T14:29:51.118Z,18.37
2018-10-02T14:32:18.712Z,15.80
2018-10-02T14:34:46.106Z,17.33
2018-10-02T14:37:13.463Z,16.33
2018-10-02T14:39:40.807Z,18.10
2018-10-02T14:42:08.248Z,18.87
2018-10-02T14:44:36.306Z,17.33
2018-10-02T14:47:03.970Z,18.90
2018-10-02T14:49:31.762Z,19.47
2018-10-02T14:51:59.218Z,19.23
2018-10-02T14:54:26.874Z,19.90
2018-10-02T14:56:54.363Z,21.07
2018-10-02T14:59:22.199Z,20.77
2018-10-02T15:01:49.771Z,19.70
2018-10-02T15:04:17.389Z,19.77
2018-10-02T15:06:46.033Z,20.80
2018-10-02T15:09:13.694Z,19.17
2018-10-02T15:11:41.170Z,19.30
2018-10-02T15:14:08.731Z,19.90
2018-10-02T15:16:36.510Z,21.87
2018-10-02T15:19:04.008Z,20.10
2018-10-02T15:21:31.659Z,20.67
2018-10-02T15:23:59.243Z,20.00
2018-10-02T15:26:26.949Z,19.30
2018-10-02T15:28:54.814Z,19.47
2018-10-02T15:31:22.294Z,18.80
2018-10-02T15:33:49.914Z,18.43
2018-10-02T15:36:17.383Z,18.13
2018-10-02T15:38:45.070Z,18.73
2018-10-02T15:41:12.710Z,18.47
2018-10-02T15:43:40.350Z,17.03
2018-10-02T15:46:07.918Z,17.57
2018-10-02T15:48:35.472Z,15.87
2018-10-02T15:51:04.379Z,16.90
2018-10-02T15:53:32.001Z,16.97
2018-10-02T15:55:59.472Z,16.77
2018-10-02T15:58:27.081Z,16.83
2018-10-02T16:00:54.678Z,15.80
2018-10-02T16:03:22.218Z,15.43
2018-10-02T16:05:49.755Z,15.23
2018-10-02T16:08:17.359Z,14.07
2018-10-02T16:10:44.915Z,14.93
2018-10-02T16:13:12.570Z,15.00
2018-10-02T16:15:40.181Z,16.63
2018-10-02T16:18:07.799Z,15.33
2018-10-02T16:20:35.370Z,15.00
2018-10-02T16:23:02.857Z,17.00
2018-10-02T16:25:31.127Z,16.50
2018-10-02T16:27:58.779Z,16.50
2018-10-02T16:30:28.463Z,16.17
2018-10-02T16:32:56.142Z,17.00
2018-10-02T16:35:23.979Z,19.40
2018-10-02T16:37:51.474Z,17.10
2018-10-02T16:40:18.943Z,18.80
2018-10-02T16:42:47.077Z,19.00
2018-10-02T16:45:14.814Z,19.10
2018-10-02T16:47:42.409Z,19.40
2018-10-02T16:50:09.985Z,18.80
2018-10-02T16:52:37.566Z,17.33
2018-10-02T16:55:05.515Z,18.77
2018-10-02T16:57:33.031Z,17.50
2018-10-02T17:00:00.710Z,17.57
2018-10-02T17:02:28.389Z,19.23
2018-10-02T17:04:56.510Z,18.27
2018-10-02T17:07:23.826Z,18.80
2018-10-02T17:09:52.227Z,16.97
2018-10-02T17:12:19.754Z,18.60
2018-10-02T17:14:47.166Z,18.27
2018-10-02T17:17:14.567Z,17.40
2018-10-02T17:19:42.191Z,17.03
2018-10-02T17:22:09.994Z,17.90
2018-10-02T17:24:37.398Z,17.90
2018-10-02T17:27:05.086Z,18.20
2018-10-02T17:29:32.424Z,18.90
2018-10-02T17:32:00.034Z,17.60
2018-10-02T17:34:27.591Z,18.23
2018-10-02T17:36:58.765Z,18.03
2018-10-02T17:39:26.241Z,18.20
2018-10-02T17:41:53.553Z,18.33
2018-10-02T17:44:20.921Z,16.73
2018-10-02T17:46:48.269Z,19.00
2018-10-02T17:49:15.600Z,16.70
2018-10-02T17:51:45.041Z,17.07
2018-10-02T17:54:12.363Z,16.00
2018-10-02T17:56:39.647Z,16.30
2018-10-02T17:59:06.974Z,17.03
2018-10-02T18:01:34.392Z,16.30
2018-10-02T18:04:01.684Z,14.53
2018-10-02T18:06:28.988Z,14.87
2018-10-02T18:08:56.407Z,10.90
2018-10-02T18:11:23.705Z,10.60
2018-10-02T18:13:51.005Z,10.17
2018-10-02T18:16:18.373Z,8.53
2018-10-02T18:18:45.719Z,8.80
2018-10-02T18:21:13.069Z,7.47
2018-10-02T18:23:40.366Z,7.50
2018-10-02T18:26:07.783Z,6.60
2018-10-02T18:28:35.174Z,6.30
2018-10-02T18:31:06.013Z,5.37
2018-10-02T18:33:33.403Z,5.40
2018-10-02T18:36:00.738Z,5.50
2018-10-02T18:38:28.001Z,5.97
2018-10-02T18:40:55.321Z,5.07
2018-10-02T18:43:22.591Z,7.20
2018-10-02T18:45:49.883Z,5.70
2018-10-02T18:48:17.279Z,4.70
2018-10-02T18:50:44.635Z,4.13
2018-10-02T18:53:12.234Z,4.97
2018-10-02T18:55:39.677Z,5.43
2018-10-02T18:58:07.466Z,4.00
2018-10-02T19:00:34.976Z,5.00
2018-10-02T19:03:02.578Z,3.10
2018-10-02T19:05:30.147Z,4.43
2018-10-02T19:07:57.834Z,5.17
2018-10-02T19:10:25.393Z,3.77
2018-10-02T19:12:52.829Z,3.13
2018-10-02T19:15:20.529Z,2.97
2018-10-02T19:17:48.058Z,3.00
2018-10-02T19:20:21.422Z,4.03
2018-10-02T19:22:48.769Z,3.10
2018-10-02T19:25:22.090Z,2.90
2018-10-02T19:27:49.621Z,3.60
2018-10-02T19:30:22.915Z,3.23
2018-10-02T19:32:50.385Z,4.53
2018-10-02T19:35:17.940Z,4.00
2018-10-02T19:37:51.610Z,3.17
2018-10-02T19:40:19.106Z,3.47
2018-10-02T19:42:46.641Z,3.63
2018-10-02T19:45:19.833Z,4.17
2018-10-02T19:47:47.323Z,5.70
2018-10-02T19:50:14.777Z,4.83
2018-10-02T19:52:42.210Z,4.67
2018-10-02T19:55:09.658Z,4.60
2018-10-02T19:57:37.147Z,5.40
2018-10-02T20:00:05.439Z,5.43
2018-10-02T20:02:32.882Z,5.77
2018-10-02T20:05:00.830Z,5.40
2018-10-02T20:07:28.292Z,5.90
2018-10-02T20:09:55.808Z,6.60
2018-10-02T20:12:23.299Z,7.40
2018-10-02T20:14:50.826Z,7.20
2018-10-02T20:17:18.306Z,6.10
2018-10-02T20:19:45.820Z,6.67
2018-10-02T20:22:13.317Z,5.30
2018-10-02T20:24:40.898Z,4.73
2018-10-02T20:27:08.419Z,4.40
2018-10-02T20:29:36.406Z,4.80
2018-10-02T20:32:03.904Z,3.57
2018-10-02T20:34:31.390Z,4.93
2018-10-02T20:36:58.973Z,4.70
2018-10-02T20:39:26.562Z,5.17
2018-10-02T20:41:54.210Z,3.60
2018-10-02T20:44:21.686Z,3.80
2018-10-02T20:46:49.154Z,3.67
2018-10-02T20:49:16.717Z,3.57
2018-10-02T20:51:44.182Z,3.50
2018-10-02T20:54:11.674Z,3.50
2018-10-02T20:56:39.215Z,3.03
2018-10-02T20:59:06.694Z,3.30
2018-10-02T21:01:34.918Z,3.60
2018-10-02T21:04:02.394Z,3.00
2018-10-02T21:06:29.838Z,3.93
2018-10-02T21:08:57.342Z,3.60
2018-10-02T21:11:24.947Z,3.87
2018-10-02T21:13:52.402Z,3.50
2018-10-02T21:16:19.842Z,3.97
2018-10-02T21:18:47.515Z,4.07
2018-10-02T21:21:15.006Z,4.07
2018-10-02T21:23:42.471Z,4.03
2018-10-02T21:26:09.926Z,3.80
2018-10-02T21:28:37.408Z,3.40
2018-10-02T21:31:04.994Z,3.20
2018-10-02T21:33:33.945Z,3.40
2018-10-02T21:36:01.246Z,3.33
2018-10-02T21:38:28.574Z,3.20
2018-10-02T21:40:56.018Z,3.67
2018-10-02T21:43:23.655Z,3.10
2018-10-02T21:45:51.187Z,3.37
2018-10-02T21:48:18.670Z,3.20
2018-10-02T21:50:46.311Z,3.30
2018-10-02T21:53:13.781Z,3.83
2018-10-02T21:55:41.395Z,3.40
2018-10-02T21:58:08.926Z,3.53
2018-10-02T22:00:36.442Z,3.77
2018-10-02T22:03:03.941Z,3.40
2018-10-02T22:05:31.411Z,3.60
2018-10-02T22:07:58.890Z,4.20
2018-10-02T22:10:26.382Z,3.47
2018-10-02T22:12:53.882Z,3.33
2018-10-02T22:15:22.529Z,5.20
2018-10-02T22:17:49.983Z,5.03
2018-10-02T22:20:17.503Z,4.80
2018-10-02T22:22:44.999Z,5.43
2018-10-02T22:25:12.522Z,6.20
2018-10-02T22:27:40.023Z,6.43
2018-10-02T22:30:09.579Z,5.70
2018-10-02T22:32:37.230Z,6.67
2018-10-02T22:35:04.694Z,5.90
2018-10-02T22:37:32.183Z,6.50
2018-10-02T22:39:59.704Z,7.33
2018-10-02T22:42:27.166Z,6.73
2018-10-02T22:44:54.631Z,8.60
2018-10-02T22:47:22.150Z,7.87
2018-10-02T22:49:49.586Z,7.97
2018-10-02T22:52:17.257Z,8.40
2018-10-02T22:54:44.750Z,8.30
2018-10-02T22:57:12.338Z,8.77
2018-10-02T22:59:39.783Z,8.43
2018-10-02T23:02:07.235Z,8.03
2018-10-02T23:04:34.687Z,8.67
2018-10-02T23:07:02.246Z,8.73
2018-10-02T23:09:29.838Z,8.10
2018-10-02T23:11:57.326Z,8.07
2018-10-02T23:14:24.766Z,7.10
2018-10-02T23:16:52.235Z,7.07
2018-10-02T23:19:19.689Z,7.27
2018-10-02T23:21:47.353Z,7.67
2018-10-02T23:24:14.995Z,8.20
2018-10-02T23:26:42.432Z,7.60
2018-10-02T23:29:10.283Z,7.70
2018-10-02T23:31:37.751Z,7.77
2018-10-02T23:34:05.225Z,7.27
2018-10-02T23:36:32.702Z,7.13
2018-10-02T23:39:00.199Z,7.73
2018-10-02T23:41:27.722Z,7.17
2018-10-02T23:43:55.234Z,7.57
2018-10-02T23:46:22.691Z,6.37
2018-10-02T23:48:50.169Z,7.00
2018-10-02T23:51:17.651Z,7.03
2018-10-02T23:53:45.243Z,6.90
2018-10-02T23:56:12.758Z,7.00
2018-10-02T23:58:40.277Z,7.37
